createdAt,value
2024-04-14T08:02:41.161Z,97.82
2024-04-14T08:12:48.311Z,97.82
2024-04-14T08:22:55.521Z,97.98
2024-04-14T08:33:03.264Z,97.98
2024-04-14T08:43:11.258Z,98.13
2024-04-14T08:53:18.285Z,98.13
2024-04-14T09:03:26.052Z,98.29
2024-04-14T09:13:33.542Z,98.45
2024-04-14T09:23:42.448Z,98.45
2024-04-14T09:33:49.996Z,98.61
2024-04-14T09:43:57.326Z,98.77
2024-04-14T09:54:05.108Z,98.93
2024-04-14T10:04:14.536Z,99.08
2024-04-14T10:14:21.902Z,99.24
2024-04-14T10:24:29.773Z,99.4
2024-04-14T10:34:37.674Z,99.56
2024-04-14T10:44:49.326Z,99.71
2024-04-14T10:54:57.661Z,100.03
2024-04-14T11:05:05.736Z,100.51
2024-04-14T11:15:13.729Z,100.66
2024-04-14T11:25:21.345Z,100.98
2024-04-14T11:35:29.642Z,101.14
2024-04-14T11:45:38.618Z,101.3
2024-04-14T11:55:46.169Z,101.46
2024-04-14T12:05:54.128Z,101.46
2024-04-14T12:16:01.931Z,101.61
2024-04-14T12:26:10.045Z,101.61
2024-04-14T12:36:17.149Z,101.77
2024-04-14T12:46:26.447Z,101.77
2024-04-14T12:56:35.017Z,101.77
2024-04-14T13:06:42.090Z,101.77
2024-04-14T13:16:51.776Z,101.93
2024-04-14T13:27:00.170Z,101.93
2024-04-14T13:37:08.179Z,101.93
2024-04-14T13:47:16.028Z,101.93
2024-04-14T13:57:23.856Z,101.93
2024-04-14T14:07:31.964Z,101.93
2024-04-14T14:17:40.724Z,101.93
2024-04-14T14:27:49.038Z,101.93
2024-04-14T14:38:02.212Z,101.93
2024-04-14T14:48:11.720Z,101.93
2024-04-14T14:58:19.226Z,101.93
2024-04-14T15:08:27.143Z,101.93
2024-04-14T15:18:35.092Z,101.93
2024-04-14T15:28:42.916Z,101.93
2024-04-14T15:38:50.920Z,101.93
2024-04-14T15:48:58.696Z,101.93
2024-04-14T15:59:06.545Z,101.93
2024-04-14T16:09:14.462Z,101.93
2024-04-14T16:19:21.965Z,102.09
2024-04-14T16:29:27.905Z,102.09
2024-04-14T16:39:33.240Z,102.09
2024-04-14T16:49:39.980Z,102.09
2024-04-14T16:59:45.878Z,102.25
2024-04-14T17:09:53.139Z,102.25
2024-04-14T17:19:59.866Z,102.25
2024-04-14T17:30:06.811Z,102.09
2024-04-14T17:40:14.068Z,102.09
2024-04-14T17:50:21.184Z,102.09
2024-04-14T18:00:28.059Z,101.93
2024-04-14T18:10:35.125Z,101.77
2024-04-14T18:20:48.297Z,101.77
2024-04-14T18:30:55.993Z,101.77
2024-04-14T18:41:02.621Z,101.61
2024-04-14T18:51:09.360Z,101.61
2024-04-14T19:01:16.962Z,101.46
2024-04-14T19:11:24.387Z,101.46
2024-04-14T19:21:31.630Z,101.46
2024-04-14T19:31:39.440Z,101.3
2024-04-14T19:41:46.668Z,101.3
2024-04-14T19:51:54.048Z,101.14
2024-04-14T20:02:02.319Z,101.14
2024-04-14T20:12:09.588Z,101.14
2024-04-14T20:22:17.494Z,101.14
2024-04-14T20:32:25.370Z,100.98
2024-04-14T20:42:32.246Z,100.98
2024-04-14T20:52:39.409Z,100.82
2024-04-14T21:02:46.883Z,100.82
2024-04-14T21:12:54.391Z,100.82
2024-04-14T21:23:01.998Z,100.82
2024-04-14T21:33:09.733Z,100.66
2024-04-14T21:43:17.554Z,100.66
2024-04-14T21:53:24.507Z,100.51
